createdAt,value
2017-06-10T00:00:23.731Z,17.64
2017-06-10T00:01:04.618Z,17.59
2017-06-10T00:01:45.511Z,17.63
2017-06-10T00:02:26.414Z,17.64
2017-06-10T00:03:07.294Z,17.64
2017-06-10T00:03:48.203Z,17.63
2017-06-10T00:04:29.107Z,17.52
2017-06-10T00:05:09.992Z,17.6
2017-06-10T00:05:50.882Z,17.57
2017-06-10T00:06:31.758Z,17.6
2017-06-10T00:07:12.646Z,17.54
2017-06-10T00:07:53.542Z,17.51
2017-06-10T00:08:34.436Z,17.63
2017-06-10T00:09:15.347Z,17.64
2017-06-10T00:09:56.256Z,17.64
2017-06-10T00:10:37.138Z,17.65
2017-06-10T00:11:18.023Z,17.6
2017-06-10T00:11:58.928Z,17.6
2017-06-10T00:12:39.811Z,17.52
2017-06-10T00:13:20.732Z,17.64
2017-06-10T00:14:01.611Z,17.63
2017-06-10T00:14:42.493Z,17.64
2017-06-10T00:15:23.382Z,17.6
2017-06-10T00:16:04.268Z,17.54
2017-06-10T00:16:45.161Z,17.52
2017-06-10T00:17:26.050Z,17.54
2017-06-10T00:18:06.955Z,17.57
2017-06-10T00:18:47.847Z,17.59
2017-06-10T00:19:28.753Z,17.57
2017-06-10T00:20:09.652Z,17.59
2017-06-10T00:20:50.563Z,17.49
2017-06-10T00:21:31.483Z,17.52
2017-06-10T00:22:12.386Z,17.6
2017-06-10T00:22:53.277Z,17.6
2017-06-10T00:23:34.160Z,17.63
2017-06-10T00:24:15.040Z,17.59
2017-06-10T00:24:55.917Z,17.52
2017-06-10T00:25:37.464Z,17.64
2017-06-10T00:26:18.364Z,17.51
2017-06-10T00:26:59.244Z,17.54
2017-06-10T00:27:40.129Z,17.63
2017-06-10T00:28:21.031Z,17.63
2017-06-10T00:29:01.917Z,17.63
2017-06-10T00:29:42.829Z,17.63
2017-06-10T00:30:23.731Z,17.6
2017-06-10T00:31:04.625Z,17.63
2017-06-10T00:31:45.517Z,17.63
2017-06-10T00:32:26.412Z,17.6
2017-06-10T00:33:07.308Z,17.63
2017-06-10T00:33:48.202Z,17.67
2017-06-10T00:34:29.095Z,17.74
2017-06-10T00:35:09.985Z,17.57
2017-06-10T00:35:50.872Z,17.64
2017-06-10T00:36:31.756Z,17.54
2017-06-10T00:37:12.638Z,17.65
2017-06-10T00:37:53.625Z,17.65
2017-06-10T00:38:34.508Z,17.64
2017-06-10T00:39:15.399Z,17.34
2017-06-10T00:39:56.287Z,17.44
2017-06-10T00:40:37.177Z,17.16
2017-06-10T00:41:18.067Z,17.11
2017-06-10T00:41:58.948Z,17.09
2017-06-10T00:42:39.845Z,17.01
2017-06-10T00:43:20.733Z,17.04
2017-06-10T00:44:01.615Z,17.02
2017-06-10T00:44:42.503Z,17.04
2017-06-10T00:45:23.394Z,17.04
2017-06-10T00:46:04.293Z,16.99
2017-06-10T00:46:45.177Z,16.86
2017-06-10T00:47:26.073Z,16.96
2017-06-10T00:48:06.972Z,16.9
2017-06-10T00:48:47.866Z,16.89
2017-06-10T00:49:28.762Z,16.87
2017-06-10T00:50:09.644Z,16.81
2017-06-10T00:50:50.555Z,16.83
2017-06-10T00:51:31.445Z,16.87
2017-06-10T00:52:12.320Z,16.79
2017-06-10T00:52:53.197Z,16.83
2017-06-10T00:53:34.096Z,16.87
2017-06-10T00:54:14.995Z,16.84
2017-06-10T00:54:55.892Z,16.81
2017-06-10T00:55:36.795Z,16.9
2017-06-10T00:56:17.681Z,16.83
2017-06-10T00:56:58.559Z,16.87
2017-06-10T00:57:39.459Z,16.84
2017-06-10T00:58:20.335Z,17.01
2017-06-10T00:59:01.233Z,16.89
2017-06-10T00:59:42.140Z,16.89
2017-06-10T01:00:23.033Z,16.86
2017-06-10T01:01:03.938Z,16.91
2017-06-10T01:01:44.850Z,16.96
2017-06-10T01:02:25.732Z,16.84
2017-06-10T01:03:06.617Z,16.87
2017-06-10T01:03:47.515Z,16.9
2017-06-10T01:04:28.403Z,16.84
2017-06-10T01:05:09.289Z,16.86
2017-06-10T01:05:50.181Z,16.86
2017-06-10T01:06:31.074Z,16.86
2017-06-10T01:07:11.963Z,16.84
2017-06-10T01:07:52.864Z,16.91
2017-06-10T01:08:33.758Z,16.94
2017-06-10T01:09:14.641Z,16.87
2017-06-10T01:09:55.548Z,16.86
2017-06-10T01:10:36.430Z,16.79
2017-06-10T01:11:17.320Z,16.86
2017-06-10T01:11:58.218Z,17.01
2017-06-10T01:12:39.106Z,17.02
2017-06-10T01:13:20.001Z,16.93
2017-06-10T01:14:00.886Z,16.91
2017-06-10T01:14:41.778Z,17.04
2017-06-10T01:15:22.671Z,17.05
2017-06-10T01:16:03.570Z,17.06
2017-06-10T01:16:44.458Z,17.12
2017-06-10T01:17:25.343Z,17.06
2017-06-10T01:18:06.234Z,17.05
2017-06-10T01:18:47.126Z,17.05
2017-06-10T01:19:28.022Z,17.12
2017-06-10T01:20:08.912Z,17.05
2017-06-10T01:20:49.804Z,16.97
2017-06-10T01:21:30.696Z,16.96
2017-06-10T01:22:11.586Z,16.91
2017-06-10T01:22:52.466Z,16.94
2017-06-10T01:23:33.349Z,17.04
2017-06-10T01:24:14.253Z,17.08
2017-06-10T01:24:55.155Z,17.05
2017-06-10T01:25:36.048Z,17.04
2017-06-10T01:26:16.933Z,16.87
2017-06-10T01:26:57.822Z,17.06
2017-06-10T01:27:38.713Z,17.02
2017-06-10T01:28:19.602Z,17.04
2017-06-10T01:29:00.489Z,17.04
2017-06-10T01:29:41.410Z,17.05
2017-06-10T01:30:22.300Z,17.06
2017-06-10T01:31:03.197Z,17.09
2017-06-10T01:31:44.085Z,17.08
2017-06-10T01:32:24.995Z,17.14
2017-06-10T01:33:05.885Z,17.06
2017-06-10T01:33:46.797Z,17.06
2017-06-10T01:34:27.688Z,17.11
2017-06-10T01:35:08.580Z,17.11
2017-06-10T01:35:49.466Z,17.14
2017-06-10T01:36:30.350Z,17.19
2017-06-10T01:37:11.255Z,17.23
2017-06-10T01:37:52.145Z,17.22
2017-06-10T01:38:33.054Z,17.3
2017-06-10T01:39:13.956Z,17.31
2017-06-10T01:39:54.863Z,17.39
2017-06-10T01:40:35.769Z,17.36
2017-06-10T01:41:16.647Z,17.41
2017-06-10T01:41:57.547Z,17.36
2017-06-10T01:42:38.446Z,17.44
2017-06-10T01:43:19.343Z,17.41
2017-06-10T01:44:00.233Z,17.33
2017-06-10T01:44:41.121Z,17.39
2017-06-10T01:45:22.006Z,17.39
2017-06-10T01:46:02.902Z,17.38
2017-06-10T01:46:43.791Z,17.41
2017-06-10T01:47:24.686Z,17.39
2017-06-10T01:48:05.690Z,17.41
2017-06-10T01:48:46.582Z,17.39
2017-06-10T01:49:27.471Z,17.38
2017-06-10T01:50:08.364Z,17.31
2017-06-10T01:50:49.249Z,17.27
2017-06-10T01:51:30.144Z,17.24
2017-06-10T01:52:11.033Z,17.24
2017-06-10T01:52:51.922Z,17.27
2017-06-10T01:53:32.830Z,17.26
2017-06-10T01:54:13.764Z,17.29
2017-06-10T01:54:54.614Z,17.34
2017-06-10T01:55:35.519Z,17.38
2017-06-10T01:56:16.411Z,17.31
2017-06-10T01:56:57.295Z,17.36
2017-06-10T01:57:38.183Z,17.31
2017-06-10T01:58:19.075Z,17.36
2017-06-10T01:58:59.960Z,17.39
2017-06-10T01:59:40.856Z,17.56
2017-06-10T02:00:21.758Z,17.45
2017-06-10T02:01:02.648Z,17.42
2017-06-10T02:01:43.537Z,17.54
2017-06-10T02:02:24.438Z,17.52
2017-06-10T02:03:05.322Z,17.42
2017-06-10T02:03:46.216Z,17.44
2017-06-10T02:04:27.113Z,17.44
2017-06-10T02:05:07.998Z,17.44
2017-06-10T02:05:48.902Z,17.56
2017-06-10T02:06:29.823Z,17.51
2017-06-10T02:07:10.719Z,17.6
2017-06-10T02:07:51.606Z,17.63
2017-06-10T02:08:32.489Z,17.6
2017-06-10T02:09:13.380Z,17.63
2017-06-10T02:09:54.272Z,17.71
2017-06-10T02:10:35.170Z,17.65
2017-06-10T02:11:16.062Z,17.71
2017-06-10T02:11:56.951Z,17.71
2017-06-10T02:12:37.842Z,17.71
2017-06-10T02:13:18.737Z,17.59
2017-06-10T02:13:59.668Z,17.67
2017-06-10T02:14:40.561Z,17.71
2017-06-10T02:15:21.461Z,17.68
2017-06-10T02:16:02.349Z,17.67
2017-06-10T02:16:43.252Z,17.68
2017-06-10T02:17:24.142Z,17.78
2017-06-10T02:18:05.025Z,17.8
2017-06-10T02:18:45.927Z,17.68
2017-06-10T02:19:26.824Z,17.8
2017-06-10T02:20:07.735Z,17.7
2017-06-10T02:20:48.626Z,17.63
2017-06-10T02:21:29.525Z,17.63
2017-06-10T02:22:10.422Z,17.59
2017-06-10T02:22:51.314Z,17.67
2017-06-10T02:23:32.207Z,17.54
2017-06-10T02:24:13.096Z,17.68
2017-06-10T02:24:53.980Z,17.45
2017-06-10T02:25:34.878Z,17.54
2017-06-10T02:26:15.776Z,17.51
2017-06-10T02:26:56.663Z,17.67
2017-06-10T02:27:37.554Z,17.64
2017-06-10T02:28:18.433Z,17.52
2017-06-10T02:28:59.334Z,17.71
2017-06-10T02:29:40.228Z,17.68
2017-06-10T02:30:21.121Z,17.68
2017-06-10T02:31:02.009Z,17.6
2017-06-10T02:31:42.906Z,17.6
2017-06-10T02:32:23.790Z,17.64
2017-06-10T02:33:04.691Z,17.6
2017-06-10T02:33:45.575Z,17.63
2017-06-10T02:34:26.475Z,17.39
2017-06-10T02:35:07.369Z,17.46
2017-06-10T02:35:48.253Z,17.45
2017-06-10T02:36:29.153Z,17.64
2017-06-10T02:37:10.046Z,17.44
2017-06-10T02:37:50.933Z,17.51
2017-06-10T02:38:31.842Z,17.65
2017-06-10T02:39:12.718Z,17.59
2017-06-10T02:39:53.599Z,17.74
2017-06-10T02:40:34.499Z,17.74
2017-06-10T02:41:15.392Z,17.72
2017-06-10T02:41:56.282Z,17.7
2017-06-10T02:42:37.189Z,17.78
2017-06-10T02:43:18.069Z,17.76
2017-06-10T02:43:58.956Z,17.68
2017-06-10T02:44:39.856Z,17.72
2017-06-10T02:45:20.745Z,17.7
2017-06-10T02:46:01.635Z,17.74
2017-06-10T02:46:42.529Z,17.76
2017-06-10T02:47:23.420Z,17.83
2017-06-10T02:48:04.307Z,17.82
2017-06-10T02:48:45.198Z,17.8
2017-06-10T02:49:26.101Z,17.86
2017-06-10T02:50:06.956Z,17.98
2017-06-10T02:50:47.870Z,17.89
2017-06-10T02:51:28.775Z,17.76
2017-06-10T02:52:09.649Z,17.72
2017-06-10T02:52:50.594Z,17.63
2017-06-10T02:53:31.460Z,17.39
2017-06-10T02:54:12.430Z,17.44
2017-06-10T02:54:53.322Z,17.36
2017-06-10T02:55:34.241Z,17.52
2017-06-10T02:56:15.121Z,17.31
2017-06-10T02:56:56.045Z,17.24
2017-06-10T02:57:36.941Z,17.06
2017-06-10T02:58:17.814Z,17.09
2017-06-10T02:58:58.702Z,17.06
2017-06-10T02:59:39.582Z,17.09
2017-06-10T03:00:20.470Z,17.04
2017-06-10T03:01:01.408Z,17.16
2017-06-10T03:01:42.275Z,17.06
2017-06-10T03:02:23.180Z,17.15
2017-06-10T03:03:04.070Z,16.99
2017-06-10T03:03:44.946Z,17.05
2017-06-10T03:04:25.876Z,17.08
2017-06-10T03:05:06.767Z,16.94
2017-06-10T03:05:47.681Z,17.02
2017-06-10T03:06:28.579Z,16.91
2017-06-10T03:07:09.470Z,16.87
2017-06-10T03:07:50.366Z,16.93
2017-06-10T03:08:31.256Z,17.02
2017-06-10T03:09:12.146Z,16.96
2017-06-10T03:09:53.044Z,16.81
2017-06-10T03:10:33.922Z,16.72
2017-06-10T03:11:14.800Z,16.72
2017-06-10T03:11:55.700Z,16.76
2017-06-10T03:12:36.580Z,16.64
2017-06-10T03:13:17.452Z,16.66
2017-06-10T03:13:58.323Z,16.61
2017-06-10T03:14:39.223Z,16.43
2017-06-10T03:15:20.130Z,16.43
2017-06-10T03:16:01.068Z,16.5
2017-06-10T03:16:41.941Z,16.46
2017-06-10T03:17:22.815Z,16.43
2017-06-10T03:18:03.712Z,16.58
2017-06-10T03:18:44.622Z,16.47
2017-06-10T03:19:25.507Z,16.38
2017-06-10T03:20:06.419Z,16.53
2017-06-10T03:20:47.332Z,16.56
2017-06-10T03:21:28.207Z,16.41
2017-06-10T03:22:09.122Z,16.51
2017-06-10T03:22:49.989Z,16.43
2017-06-10T03:23:30.870Z,16.43
2017-06-10T03:24:12.022Z,16.33
2017-06-10T03:24:53.552Z,16.36
2017-06-10T03:25:34.442Z,16.28
2017-06-10T03:26:15.341Z,16.38
2017-06-10T03:26:56.259Z,16.29
2017-06-10T03:27:37.156Z,16.24
2017-06-10T03:28:18.061Z,16.24
2017-06-10T03:28:58.935Z,16.28
2017-06-10T03:29:39.822Z,16.24
2017-06-10T03:30:20.742Z,16.36
2017-06-10T03:31:01.614Z,16.32
2017-06-10T03:31:42.506Z,16.31
2017-06-10T03:32:23.398Z,16.24
2017-06-10T03:33:04.286Z,16.41
2017-06-10T03:33:45.195Z,16.1
2017-06-10T03:34:26.091Z,16.13
2017-06-10T03:35:06.971Z,16.09
2017-06-10T03:35:47.866Z,16.16
2017-06-10T03:36:28.762Z,16.12
2017-06-10T03:37:09.623Z,16.12
2017-06-10T03:37:50.518Z,16.13
2017-06-10T03:38:31.382Z,16.16
2017-06-10T03:39:12.284Z,16.17
2017-06-10T03:39:53.183Z,16.05
2017-06-10T03:40:34.069Z,16.16
2017-06-10T03:41:14.962Z,16.05
2017-06-10T03:41:55.851Z,16.13
2017-06-10T03:42:36.747Z,16.09
2017-06-10T03:43:17.652Z,16.1
2017-06-10T03:43:58.536Z,16.02
2017-06-10T03:44:39.380Z,16.13
2017-06-10T03:45:20.285Z,16.13
2017-06-10T03:46:01.191Z,16
2017-06-10T03:46:42.061Z,16.1
2017-06-10T03:47:22.951Z,16.08
2017-06-10T03:48:03.859Z,16.04
2017-06-10T03:48:44.737Z,15.94
2017-06-10T03:49:25.643Z,15.97
2017-06-10T03:50:06.542Z,16.02
2017-06-10T03:50:47.425Z,15.97
2017-06-10T03:51:28.299Z,15.97
2017-06-10T03:52:09.211Z,16.04
2017-06-10T03:52:50.091Z,15.97
2017-06-10T03:53:31.075Z,16
2017-06-10T03:54:11.904Z,15.94
2017-06-10T03:54:52.813Z,16
2017-06-10T03:55:33.712Z,16
2017-06-10T03:56:14.604Z,16.01
2017-06-10T03:56:55.496Z,16.02
2017-06-10T03:57:36.401Z,15.95
2017-06-10T03:58:17.277Z,15.95
2017-06-10T03:58:58.168Z,15.92
2017-06-10T03:59:39.074Z,15.91
2017-06-10T04:00:19.947Z,15.97
2017-06-10T04:01:00.857Z,16.01
2017-06-10T04:01:41.745Z,16.04
2017-06-10T04:02:22.625Z,15.94
2017-06-10T04:03:03.519Z,15.94
2017-06-10T04:03:44.405Z,15.92
2017-06-10T04:04:25.319Z,15.92
2017-06-10T04:05:06.231Z,15.94
2017-06-10T04:05:47.111Z,15.98
2017-06-10T04:06:28.005Z,15.8
2017-06-10T04:07:08.907Z,15.76
2017-06-10T04:07:49.787Z,15.88
2017-06-10T04:08:30.687Z,15.82
2017-06-10T04:09:11.570Z,15.82
2017-06-10T04:09:52.462Z,15.79
2017-06-10T04:10:33.345Z,15.79
2017-06-10T04:11:14.246Z,15.86
2017-06-10T04:11:55.165Z,15.77
2017-06-10T04:12:36.025Z,15.9
2017-06-10T04:13:16.947Z,15.86
2017-06-10T04:13:57.839Z,15.8
2017-06-10T04:14:38.740Z,15.75
2017-06-10T04:15:19.628Z,15.77
2017-06-10T04:16:00.517Z,15.91
2017-06-10T04:16:41.416Z,15.8
2017-06-10T04:17:22.313Z,15.94
2017-06-10T04:18:03.201Z,15.97
2017-06-10T04:18:44.096Z,15.92
2017-06-10T04:19:25.012Z,15.83
2017-06-10T04:20:05.903Z,15.83
2017-06-10T04:20:46.785Z,15.94
2017-06-10T04:21:27.677Z,15.86
2017-06-10T04:22:08.556Z,15.84
2017-06-10T04:22:49.449Z,15.86
2017-06-10T04:23:30.340Z,15.94
2017-06-10T04:24:11.247Z,15.95
2017-06-10T04:24:52.144Z,15.95
2017-06-10T04:25:33.031Z,16.01
2017-06-10T04:26:13.946Z,15.95
2017-06-10T04:26:54.829Z,15.92
2017-06-10T04:27:35.744Z,15.8
2017-06-10T04:28:16.636Z,15.82
2017-06-10T04:28:57.532Z,15.72
2017-06-10T04:29:38.437Z,15.84
2017-06-10T04:30:19.365Z,15.83
2017-06-10T04:31:00.258Z,15.84
2017-06-10T04:31:41.146Z,15.82
2017-06-10T04:32:22.034Z,15.88
2017-06-10T04:33:02.934Z,15.91
2017-06-10T04:33:43.817Z,15.94
2017-06-10T04:34:24.705Z,15.88
2017-06-10T04:35:05.599Z,15.97
2017-06-10T04:35:46.481Z,15.95
2017-06-10T04:36:27.356Z,15.98
2017-06-10T04:37:08.234Z,16.16
2017-06-10T04:37:49.143Z,16.08
2017-06-10T04:38:30.020Z,16.01
2017-06-10T04:39:10.906Z,15.9
2017-06-10T04:39:51.800Z,15.92
2017-06-10T04:40:32.713Z,16.02
2017-06-10T04:41:13.637Z,15.9
2017-06-10T04:41:54.531Z,15.86
2017-06-10T04:42:35.418Z,15.82
2017-06-10T04:43:16.316Z,15.83
2017-06-10T04:43:57.215Z,15.84
2017-06-10T04:44:38.151Z,15.77
2017-06-10T04:45:19.048Z,15.76
2017-06-10T04:45:59.950Z,16
2017-06-10T04:46:40.835Z,15.9
2017-06-10T04:47:21.730Z,15.94
2017-06-10T04:48:02.690Z,15.91
2017-06-10T04:48:43.597Z,16.02
2017-06-10T04:49:24.483Z,16.02
2017-06-10T04:50:05.391Z,15.92
2017-06-10T04:50:46.350Z,16.04
2017-06-10T04:51:27.234Z,16.1
2017-06-10T04:52:08.184Z,16.02
2017-06-10T04:52:49.026Z,16.13
2017-06-10T04:53:29.911Z,16.13
2017-06-10T04:54:10.801Z,16.1
2017-06-10T04:54:51.704Z,16.04
2017-06-10T04:55:32.580Z,16.09
2017-06-10T04:56:13.468Z,16.16
2017-06-10T04:56:54.355Z,16.13
2017-06-10T04:57:35.255Z,16.12
2017-06-10T04:58:16.152Z,16.16
2017-06-10T04:58:57.061Z,16.2
2017-06-10T04:59:37.961Z,16.13
2017-06-10T05:00:18.853Z,16.26
2017-06-10T05:00:59.748Z,16.2
2017-06-10T05:01:40.630Z,16.09
2017-06-10T05:02:21.525Z,16.13
2017-06-10T05:03:02.431Z,16.09
2017-06-10T05:03:43.291Z,16.16
2017-06-10T05:04:24.176Z,16.23
2017-06-10T05:05:05.087Z,16.26
2017-06-10T05:05:45.973Z,16.15
2017-06-10T05:06:26.852Z,16.08
2017-06-10T05:07:07.762Z,16.04
2017-06-10T05:07:48.646Z,16.16
2017-06-10T05:08:29.538Z,16.2
2017-06-10T05:09:10.435Z,16.21
2017-06-10T05:09:51.322Z,16.29
2017-06-10T05:10:32.199Z,16.2
2017-06-10T05:11:13.091Z,16.09
2017-06-10T05:11:53.982Z,16.17
2017-06-10T05:12:34.879Z,16.16
2017-06-10T05:13:15.767Z,16.16
2017-06-10T05:13:56.652Z,16.12
2017-06-10T05:14:37.540Z,16.24
2017-06-10T05:15:18.435Z,16.17
2017-06-10T05:15:59.324Z,16.38
2017-06-10T05:16:40.210Z,16.28
2017-06-10T05:17:21.093Z,16.28
2017-06-10T05:18:01.998Z,16.31
2017-06-10T05:18:42.880Z,16.33
2017-06-10T05:19:23.761Z,16.35
2017-06-10T05:20:04.645Z,16.31
2017-06-10T05:20:45.540Z,16.28
2017-06-10T05:21:26.431Z,16.24
2017-06-10T05:22:07.329Z,16.23
2017-06-10T05:22:48.235Z,16.15
2017-06-10T05:23:29.137Z,16.23
2017-06-10T05:24:10.036Z,16.38
2017-06-10T05:24:50.933Z,16.35
2017-06-10T05:25:31.829Z,16.47
2017-06-10T05:26:12.726Z,16.46
2017-06-10T05:26:53.600Z,16.32
2017-06-10T05:27:34.476Z,16.33
2017-06-10T05:28:15.376Z,16.47
2017-06-10T05:28:56.259Z,16.46
2017-06-10T05:29:37.158Z,16.43
2017-06-10T05:30:18.051Z,16.5
2017-06-10T05:30:58.946Z,16.56
2017-06-10T05:31:39.833Z,16.53
2017-06-10T05:32:20.732Z,16.58
2017-06-10T05:33:01.627Z,16.5
2017-06-10T05:33:42.541Z,16.39
2017-06-10T05:34:23.442Z,16.49
2017-06-10T05:35:04.321Z,16.49
2017-06-10T05:35:45.224Z,16.42
2017-06-10T05:36:26.107Z,16.53
2017-06-10T05:37:06.994Z,16.51
2017-06-10T05:37:47.890Z,16.43
2017-06-10T05:38:28.783Z,16.56
2017-06-10T05:39:09.665Z,16.65
2017-06-10T05:39:50.569Z,16.6
2017-06-10T05:40:31.458Z,16.51
2017-06-10T05:41:12.370Z,16.64
2017-06-10T05:41:53.254Z,16.68
2017-06-10T05:42:34.157Z,16.56
2017-06-10T05:43:15.060Z,16.56
2017-06-10T05:43:55.945Z,16.49
2017-06-10T05:44:36.837Z,16.61
2017-06-10T05:45:17.735Z,16.75
2017-06-10T05:45:58.625Z,16.81
2017-06-10T05:46:39.525Z,16.65
2017-06-10T05:47:20.412Z,16.84
2017-06-10T05:48:01.318Z,16.69
2017-06-10T05:48:42.204Z,16.79
2017-06-10T05:49:23.094Z,16.86
2017-06-10T05:50:03.988Z,16.9
2017-06-10T05:50:44.883Z,16.94
2017-06-10T05:51:25.772Z,17.04
2017-06-10T05:52:06.677Z,17.05
2017-06-10T05:52:47.582Z,17.05
2017-06-10T05:53:28.467Z,17.09
2017-06-10T05:54:09.354Z,17.16
2017-06-10T05:54:50.241Z,17.04
2017-06-10T05:55:31.143Z,17.09
2017-06-10T05:56:12.030Z,17.16
2017-06-10T05:56:52.932Z,17.06
2017-06-10T05:57:33.883Z,17.06
2017-06-10T05:58:14.778Z,17.11
2017-06-10T05:58:55.670Z,17.16
2017-06-10T05:59:36.569Z,17.26
2017-06-10T06:00:17.468Z,17.22
2017-06-10T06:00:58.345Z,17.27
2017-06-10T06:01:39.243Z,17.31
2017-06-10T06:02:20.138Z,17.38
2017-06-10T06:03:01.028Z,17.6
2017-06-10T06:03:41.928Z,17.6
2017-06-10T06:04:22.819Z,17.63
2017-06-10T06:05:03.717Z,17.72
2017-06-10T06:05:44.645Z,18.1
2017-06-10T06:06:25.508Z,18.22
2017-06-10T06:07:06.411Z,18.52
2017-06-10T06:07:47.311Z,18.7
2017-06-10T06:08:28.192Z,18.56
2017-06-10T06:09:09.096Z,18.53
2017-06-10T06:09:50.004Z,18.78
2017-06-10T06:10:30.906Z,18.75
2017-06-10T06:11:11.812Z,18.77
2017-06-10T06:11:52.693Z,19.36
2017-06-10T06:12:33.590Z,19.62
2017-06-10T06:13:14.511Z,19.84
2017-06-10T06:13:55.393Z,19.55
2017-06-10T06:14:36.297Z,19.48
2017-06-10T06:15:17.188Z,19.11
2017-06-10T06:15:58.087Z,18.58
2017-06-10T06:16:38.981Z,18.74
2017-06-10T06:17:19.877Z,19.22
2017-06-10T06:18:00.797Z,19.52
2017-06-10T06:18:41.701Z,19.26
2017-06-10T06:19:22.594Z,19.22
2017-06-10T06:20:03.500Z,19.15
2017-06-10T06:20:44.411Z,19.48
2017-06-10T06:21:25.299Z,19.48
2017-06-10T06:22:06.182Z,19.74
2017-06-10T06:22:47.090Z,20.06
2017-06-10T06:23:28.004Z,20.31
2017-06-10T06:24:08.910Z,20.28
2017-06-10T06:24:49.805Z,21.15
2017-06-10T06:25:30.706Z,21.75
2017-06-10T06:26:11.611Z,21.52
2017-06-10T06:26:52.502Z,21.03
2017-06-10T06:27:33.408Z,20.48
2017-06-10T06:28:14.321Z,19.91
2017-06-10T06:28:55.227Z,19.71
2017-06-10T06:29:36.121Z,19.82
2017-06-10T06:30:17.020Z,19.84
2017-06-10T06:30:57.922Z,20.02
2017-06-10T06:31:38.830Z,19.63
2017-06-10T06:32:19.735Z,20.44
2017-06-10T06:33:00.647Z,21.4
2017-06-10T06:33:41.539Z,22.2
2017-06-10T06:34:22.439Z,22.17
2017-06-10T06:35:03.334Z,22.98
2017-06-10T06:35:44.242Z,23.12
2017-06-10T06:36:25.145Z,23.78
2017-06-10T06:37:06.047Z,23.03
2017-06-10T06:37:46.951Z,23.58
2017-06-10T06:38:27.847Z,24.14
2017-06-10T06:39:08.782Z,24.14
2017-06-10T06:39:49.661Z,24.18
2017-06-10T06:40:30.578Z,24.58
2017-06-10T06:41:11.477Z,24.48
2017-06-10T06:41:52.375Z,24.8
2017-06-10T06:42:33.267Z,25.13
2017-06-10T06:43:14.154Z,25.65
2017-06-10T06:43:55.058Z,24.84
2017-06-10T06:44:35.956Z,23.58
2017-06-10T06:45:16.860Z,22.06
2017-06-10T06:45:57.775Z,22.23
2017-06-10T06:46:38.685Z,21.27
2017-06-10T06:47:19.583Z,21.07
2017-06-10T06:48:00.497Z,21.66
2017-06-10T06:48:41.405Z,21.67
2017-06-10T06:49:22.309Z,22.15
2017-06-10T06:50:03.216Z,22.38
2017-06-10T06:50:44.124Z,22.6
2017-06-10T06:51:25.034Z,22.83
2017-06-10T06:52:05.942Z,23.18
2017-06-10T06:52:46.855Z,23.17
2017-06-10T06:53:27.754Z,22.3
2017-06-10T06:54:08.681Z,21.88
2017-06-10T06:54:49.579Z,21.85
2017-06-10T06:55:30.488Z,21.3
2017-06-10T06:56:11.385Z,21.96
2017-06-10T06:56:52.364Z,22.8
2017-06-10T06:57:33.266Z,23.06
2017-06-10T06:58:14.182Z,23.4
2017-06-10T06:58:55.086Z,22.87
2017-06-10T06:59:35.976Z,23.21
2017-06-10T07:00:16.902Z,23.92
2017-06-10T07:00:57.793Z,24.8
2017-06-10T07:01:38.704Z,25.62
2017-06-10T07:02:19.610Z,24.88
2017-06-10T07:03:00.521Z,23.92
2017-06-10T07:03:41.456Z,24.42
2017-06-10T07:04:22.365Z,23.68
2017-06-10T07:05:03.262Z,23.59
2017-06-10T07:05:44.175Z,23.28
2017-06-10T07:06:25.081Z,23.5
2017-06-10T07:07:05.992Z,22.39
2017-06-10T07:07:46.906Z,22.28
2017-06-10T07:08:27.815Z,21.61
2017-06-10T07:09:08.705Z,21.99
2017-06-10T07:09:49.635Z,21.85
2017-06-10T07:10:30.545Z,21.6
2017-06-10T07:11:11.453Z,21.82
2017-06-10T07:11:52.362Z,22.11
2017-06-10T07:13:30.907Z,22.63
2017-06-10T07:14:11.849Z,22.69
2017-06-10T07:14:52.795Z,22.72
2017-06-10T07:15:33.683Z,22.59
2017-06-10T07:17:06.974Z,23.02
2017-06-10T07:17:47.856Z,22.76
2017-06-10T07:18:28.760Z,22.83
2017-06-10T07:19:09.645Z,22.18
2017-06-10T07:19:50.543Z,21.96
2017-06-10T07:20:31.454Z,21.83
2017-06-10T07:21:12.366Z,22.2
2017-06-10T07:21:53.284Z,21.85
2017-06-10T07:22:34.184Z,21.61
2017-06-10T07:23:15.095Z,21.17
2017-06-10T07:23:56.006Z,20.69
2017-06-10T07:24:36.914Z,20.69
2017-06-10T07:25:17.798Z,20.87
2017-06-10T07:25:58.806Z,21.2
2017-06-10T07:27:37.290Z,21.69
2017-06-10T07:28:18.176Z,21.95
2017-06-10T07:28:59.058Z,21.42
2017-06-10T07:29:39.946Z,21.7
2017-06-10T07:30:20.855Z,22.59
2017-06-10T07:31:01.735Z,23.03
2017-06-10T07:31:42.625Z,23.15
2017-06-10T07:32:23.516Z,23.03
2017-06-10T07:33:04.425Z,23.37
2017-06-10T07:33:45.319Z,23.28
2017-06-10T07:34:26.224Z,22.87
2017-06-10T07:35:07.135Z,22.43
2017-06-10T07:35:48.038Z,22.93
2017-06-10T07:36:28.929Z,23
2017-06-10T07:37:09.858Z,22.93
2017-06-10T07:37:50.770Z,21.83
2017-06-10T07:38:31.664Z,21.39
2017-06-10T07:39:12.584Z,20.97
2017-06-10T07:40:40.734Z,20.48
2017-06-10T07:41:21.648Z,20.72
2017-06-10T07:42:02.525Z,21.11
2017-06-10T07:42:43.427Z,21.24
2017-06-10T07:43:24.340Z,21.4
2017-06-10T07:44:05.234Z,21.51
2017-06-10T07:44:46.153Z,21.46
2017-06-10T07:45:27.071Z,21.92
2017-06-10T07:46:07.981Z,22.59
2017-06-10T07:46:48.875Z,23.1
2017-06-10T07:47:29.777Z,23.65
2017-06-10T07:48:10.672Z,23.65
2017-06-10T07:48:51.564Z,23.55
2017-06-10T07:49:32.467Z,23.87
2017-06-10T07:50:13.353Z,24.24
2017-06-10T07:50:54.253Z,23.4
2017-06-10T07:51:35.163Z,22.96
2017-06-10T07:52:16.049Z,21.93
2017-06-10T07:52:56.944Z,21.69
2017-06-10T07:53:37.846Z,21.7
2017-06-10T07:54:18.752Z,21.69
2017-06-10T07:54:59.647Z,21.73
2017-06-10T07:55:40.541Z,21.62
2017-06-10T07:56:21.436Z,21.7
2017-06-10T07:57:02.337Z,21.99
2017-06-10T07:57:43.249Z,22.28
2017-06-10T07:58:24.157Z,22.15
2017-06-10T07:59:05.073Z,21.95
2017-06-10T07:59:45.986Z,21.69
2017-06-10T08:00:26.888Z,22.13
2017-06-10T08:01:07.792Z,22.43
2017-06-10T08:01:48.698Z,22.45
2017-06-10T08:02:29.607Z,22.85
2017-06-10T08:03:10.572Z,23
2017-06-10T08:03:51.473Z,23.12
2017-06-10T08:04:32.390Z,23.31
2017-06-10T08:05:13.305Z,24.03
2017-06-10T08:05:54.252Z,24.28
2017-06-10T08:06:35.155Z,24.11
2017-06-10T08:07:16.076Z,22.84
2017-06-10T08:07:56.985Z,22.51
2017-06-10T08:08:37.903Z,22.28
2017-06-10T08:09:18.823Z,21.61
2017-06-10T08:09:59.733Z,21.37
2017-06-10T08:10:40.641Z,21.67
2017-06-10T08:11:21.561Z,21.91
2017-06-10T08:12:02.473Z,22.25
2017-06-10T08:12:43.360Z,22.87
2017-06-10T08:13:24.279Z,22.99
2017-06-10T08:14:05.173Z,23.08
2017-06-10T08:14:46.086Z,22.8
2017-06-10T08:15:26.996Z,22.54
2017-06-10T08:16:07.912Z,22.29
2017-06-10T08:16:48.828Z,21.17
2017-06-10T08:17:29.732Z,21.62
2017-06-10T08:19:03.046Z,22.22
2017-06-10T08:19:43.946Z,22.22
2017-06-10T08:20:24.861Z,22.08
2017-06-10T08:21:05.767Z,22.36
2017-06-10T08:21:46.678Z,21.76
2017-06-10T08:22:27.593Z,21.99
2017-06-10T08:23:08.505Z,21.66
2017-06-10T08:23:49.408Z,21.58
2017-06-10T08:24:30.319Z,21.79
2017-06-10T08:25:11.204Z,21.99
2017-06-10T08:25:52.111Z,21.6
2017-06-10T08:26:33.015Z,21.32
2017-06-10T08:27:13.927Z,21.39
2017-06-10T08:27:54.814Z,21.25
2017-06-10T08:28:35.719Z,21.29
2017-06-10T08:29:16.628Z,21.51
2017-06-10T08:29:57.528Z,21.96
2017-06-10T08:30:38.421Z,22.29
2017-06-10T08:31:19.328Z,22.17
2017-06-10T08:32:00.234Z,21.95
2017-06-10T08:32:41.132Z,22.1
2017-06-10T08:33:22.034Z,22.41
2017-06-10T08:34:02.942Z,22.7
2017-06-10T08:34:43.872Z,23.03
2017-06-10T08:35:24.760Z,22.69
2017-06-10T08:36:05.698Z,22.43
2017-06-10T08:36:46.617Z,22.54
2017-06-10T08:37:27.513Z,22.94
2017-06-10T08:38:08.424Z,22.43
2017-06-10T08:38:49.326Z,22
2017-06-10T08:39:30.238Z,22.23
2017-06-10T08:40:11.146Z,22.91
2017-06-10T08:40:52.059Z,22.83
2017-06-10T08:41:32.956Z,23.39
2017-06-10T08:42:13.869Z,23.51
2017-06-10T08:42:54.787Z,23.73
2017-06-10T08:43:35.695Z,23.98
2017-06-10T08:44:16.604Z,24.32
2017-06-10T08:44:57.507Z,23.4
2017-06-10T08:45:38.421Z,24.33
2017-06-10T08:46:19.335Z,24.58
2017-06-10T08:47:00.258Z,25.17
2017-06-10T08:47:41.188Z,24.48
2017-06-10T08:48:22.075Z,24.06
2017-06-10T08:49:02.988Z,23.51
2017-06-10T08:49:43.900Z,22.66
2017-06-10T08:50:24.829Z,23.1
2017-06-10T08:51:05.738Z,23.12
2017-06-10T08:51:46.639Z,22.8
2017-06-10T08:52:27.562Z,23.18
2017-06-10T08:53:08.464Z,22.96